createdAt,value
2019-05-12T00:00:28.650Z,66.88
2019-05-12T00:05:32.611Z,67.12
2019-05-12T00:10:38.734Z,66.60
2019-05-12T00:15:43.562Z,67.29
2019-05-12T00:20:48.118Z,68.52
2019-05-12T00:25:52.597Z,69.79
2019-05-12T00:30:58.013Z,70.13
2019-05-12T00:36:02.802Z,70.21
2019-05-12T00:41:08.801Z,71.05
2019-05-12T00:46:13.536Z,71.47
2019-05-12T00:51:18.220Z,70.97
2019-05-12T00:56:23.917Z,70.86
2019-05-12T01:01:28.757Z,71.25
2019-05-12T01:06:33.300Z,71.03
2019-05-12T01:11:38.071Z,71.09
2019-05-12T01:16:42.619Z,71.25
2019-05-12T01:21:48.162Z,71.64
2019-05-12T01:26:52.830Z,71.29
2019-05-12T01:31:59.683Z,71.59
2019-05-12T01:37:22.021Z,71.98
2019-05-12T01:42:28.728Z,71.68
2019-05-12T01:47:34.419Z,72.33
2019-05-12T01:52:39.070Z,71.66
2019-05-12T01:57:44.757Z,71.56
2019-05-12T02:02:49.396Z,71.00
2019-05-12T02:07:58.104Z,71.22
2019-05-12T02:13:01.822Z,71.41
2019-05-12T02:18:08.799Z,72.24
2019-05-12T02:23:12.717Z,71.74
2019-05-12T02:28:18.017Z,71.83
2019-05-12T02:33:24.434Z,71.86
2019-05-12T02:38:28.997Z,72.08
2019-05-12T02:43:34.785Z,72.04
2019-05-12T02:48:39.574Z,71.90
2019-05-12T02:53:46.914Z,72.32
2019-05-12T02:58:50.724Z,72.18
2019-05-12T03:03:58.708Z,72.59
2019-05-12T03:09:06.594Z,73.00
2019-05-12T03:14:11.261Z,72.52
2019-05-12T03:19:15.811Z,72.48
2019-05-12T03:24:20.366Z,71.74
2019-05-12T03:29:25.284Z,72.08
2019-05-12T03:34:30.166Z,71.53
2019-05-12T03:39:34.888Z,71.40
2019-05-12T03:44:39.422Z,70.58
2019-05-12T03:49:45.506Z,69.14
2019-05-12T03:54:50.096Z,65.66
2019-05-12T03:59:54.726Z,61.48
2019-05-12T04:04:59.404Z,59.46
2019-05-12T04:10:05.684Z,56.83
2019-05-12T04:15:11.234Z,57.76
2019-05-12T04:20:15.783Z,55.23
2019-05-12T04:25:20.284Z,54.28
2019-05-12T04:30:25.262Z,52.58
2019-05-12T04:35:29.834Z,54.24
2019-05-12T04:40:36.056Z,54.49
2019-05-12T04:45:41.158Z,49.92
2019-05-12T04:50:45.637Z,46.89
2019-05-12T04:56:09.707Z,43.68
2019-05-12T05:00:59.512Z,40.75
2019-05-12T05:06:05.304Z,41.40
2019-05-12T05:11:09.869Z,42.02
2019-05-12T05:16:14.626Z,43.04
2019-05-12T05:21:19.175Z,46.78
2019-05-12T05:26:27.902Z,45.47
2019-05-12T05:31:29.839Z,43.85
2019-05-12T05:36:36.118Z,41.72
2019-05-12T05:41:46.430Z,40.50
2019-05-12T05:46:50.153Z,38.07
2019-05-12T05:51:57.594Z,34.89
2019-05-12T05:57:02.996Z,34.56
2019-05-12T06:02:07.693Z,31.41
2019-05-12T06:07:14.397Z,31.42
2019-05-12T06:12:18.681Z,32.85
2019-05-12T06:17:23.633Z,32.84
2019-05-12T06:22:28.272Z,31.32
2019-05-12T06:27:35.726Z,31.33
2019-05-12T06:32:50.496Z,36.33
2019-05-12T06:37:59.969Z,36.42
2019-05-12T06:42:59.534Z,35.50
2019-05-12T06:48:04.183Z,36.46
2019-05-12T06:53:08.688Z,37.41
2019-05-12T06:58:13.984Z,35.17
2019-05-12T07:08:30.474Z,35.55
2019-05-12T07:13:31.095Z,33.76
2019-05-12T07:18:37.056Z,34.00
2019-05-12T07:23:44.350Z,32.93
2019-05-12T07:28:48.465Z,34.65
2019-05-12T07:33:54.243Z,34.10
2019-05-12T07:39:04.163Z,33.94
2019-05-12T07:44:06.603Z,34.41
2019-05-12T07:49:11.103Z,32.94
2019-05-12T07:54:15.799Z,31.27
2019-05-12T07:59:20.739Z,31.21
2019-05-12T08:04:25.310Z,31.76
2019-05-12T08:09:32.401Z,33.16
2019-05-12T08:14:36.109Z,32.97
2019-05-12T08:19:40.785Z,32.01
2019-05-12T08:24:48.176Z,30.87
2019-05-12T08:30:01.174Z,28.71
2019-05-12T08:34:59.034Z,32.03
2019-05-12T08:40:07.710Z,34.33
2019-05-12T08:45:15.162Z,34.18
2019-05-12T08:50:23.200Z,32.66
2019-05-12T08:55:31.564Z,30.24
2019-05-12T09:00:39.429Z,29.01
2019-05-12T09:05:45.524Z,27.84
2019-05-12T09:10:52.191Z,29.93
2019-05-12T09:15:56.495Z,29.06
2019-05-12T09:21:03.586Z,30.92
2019-05-12T09:26:07.277Z,31.58
2019-05-12T09:31:13.988Z,32.67
2019-05-12T09:36:21.762Z,32.56
2019-05-12T09:41:26.973Z,31.82
2019-05-12T09:46:34.341Z,31.90
2019-05-12T09:51:42.705Z,31.38
2019-05-12T09:56:44.337Z,33.28
2019-05-12T10:01:48.962Z,32.64
2019-05-12T10:06:53.584Z,31.53
2019-05-12T10:12:00.727Z,31.67
2019-05-12T10:17:05.557Z,31.97
2019-05-12T10:22:11.410Z,32.15
2019-05-12T10:27:21.112Z,31.14
2019-05-12T10:32:24.021Z,32.81
2019-05-12T10:37:29.524Z,31.73
2019-05-12T10:42:34.182Z,32.99
2019-05-12T10:47:38.732Z,33.82
2019-05-12T10:52:44.770Z,32.63
2019-05-12T10:57:52.989Z,32.67
2019-05-12T11:03:01.450Z,32.13
2019-05-12T11:08:11.118Z,30.77
2019-05-12T11:13:10.125Z,31.43
2019-05-12T11:18:14.909Z,33.29
2019-05-12T11:23:19.431Z,31.47
2019-05-12T11:28:24.418Z,31.41
2019-05-12T11:33:30.192Z,29.44
2019-05-12T11:38:34.742Z,29.82
2019-05-12T11:43:39.248Z,29.41
2019-05-12T11:48:46.411Z,30.16
2019-05-12T11:53:50.119Z,30.60
2019-05-12T11:58:54.674Z,32.46
2019-05-12T12:03:59.257Z,33.12
2019-05-12T12:09:09.309Z,33.54
2019-05-12T12:14:14.261Z,34.27
2019-05-12T12:19:18.480Z,34.42
2019-05-12T12:24:30.018Z,34.65
2019-05-12T12:29:29.249Z,34.42
2019-05-12T12:34:35.306Z,33.93
2019-05-12T12:39:39.847Z,34.07
2019-05-12T12:44:45.201Z,33.70
2019-05-12T12:49:49.685Z,34.10
2019-05-12T12:54:59.236Z,34.59
2019-05-12T13:00:03.664Z,35.10
2019-05-12T13:05:07.901Z,36.09
2019-05-12T13:10:14.294Z,35.81
2019-05-12T13:15:21.069Z,36.40
2019-05-12T13:20:26.314Z,37.27
2019-05-12T13:25:30.954Z,36.92
2019-05-12T13:30:45.843Z,37.16
2019-05-12T13:35:43.502Z,36.69
2019-05-12T13:40:48.241Z,37.72
2019-05-12T13:45:53.442Z,38.58
2019-05-12T13:51:07.519Z,37.90
2019-05-12T13:56:04.967Z,37.85
2019-05-12T14:01:17.020Z,37.38
2019-05-12T14:06:15.925Z,39.00
2019-05-12T14:11:20.435Z,39.63
2019-05-12T14:16:24.981Z,40.04
2019-05-12T14:21:33.149Z,39.92
2019-05-12T14:26:39.524Z,41.37
2019-05-12T14:31:45.249Z,41.48
2019-05-12T14:36:48.530Z,42.03
2019-05-12T14:41:54.628Z,40.93
2019-05-12T14:46:59.227Z,41.38
2019-05-12T14:52:03.924Z,39.61
2019-05-12T14:57:08.957Z,40.02
2019-05-12T15:02:13.689Z,41.68
2019-05-12T15:07:18.290Z,42.33
2019-05-12T15:12:24.285Z,42.40
2019-05-12T15:17:29.011Z,43.24
2019-05-12T15:22:33.591Z,43.58
2019-05-12T15:27:45.001Z,43.84
2019-05-12T15:32:44.510Z,43.78
2019-05-12T15:37:51.941Z,43.92
2019-05-12T15:43:00.273Z,44.39
2019-05-12T15:48:03.876Z,44.11
2019-05-12T15:53:07.831Z,44.12
2019-05-12T15:58:14.098Z,44.46
2019-05-12T16:03:18.988Z,44.94
2019-05-12T16:08:24.485Z,45.38
2019-05-12T16:13:29.212Z,45.36
2019-05-12T16:18:40.523Z,46.17
2019-05-12T16:23:44.735Z,46.14
2019-05-12T16:28:54.003Z,46.33
2019-05-12T16:34:01.215Z,46.78
2019-05-12T16:39:04.256Z,47.13
2019-05-12T16:44:17.295Z,47.40
2019-05-12T16:49:25.129Z,47.60
2019-05-12T16:54:25.871Z,48.06
2019-05-12T16:59:30.413Z,49.04
2019-05-12T17:04:35.043Z,49.88
2019-05-12T17:09:39.732Z,50.71
2019-05-12T17:14:49.903Z,51.22
2019-05-12T17:19:53.896Z,51.67
2019-05-12T17:24:58.020Z,52.61
2019-05-12T17:30:04.475Z,52.87
2019-05-12T17:35:10.458Z,53.48
2019-05-12T17:40:19.910Z,53.67
2019-05-12T17:45:23.563Z,53.72
2019-05-12T17:50:29.140Z,54.50
2019-05-12T17:55:42.598Z,55.91
2019-05-12T18:00:49.980Z,55.72
2019-05-12T18:05:49.887Z,55.49
2019-05-12T18:10:54.700Z,55.57
2019-05-12T18:15:59.341Z,55.62
2019-05-12T18:21:03.997Z,55.44
2019-05-12T18:26:11.480Z,54.55
2019-05-12T18:31:14.922Z,54.06
2019-05-12T18:36:19.803Z,53.99
2019-05-12T18:41:24.786Z,54.23
2019-05-12T18:46:29.302Z,54.45
2019-05-12T18:51:34.358Z,54.63
2019-05-12T18:56:39.134Z,54.86
2019-05-12T19:01:43.874Z,54.58
2019-05-12T19:06:48.890Z,54.49
2019-05-12T19:11:53.750Z,54.92
2019-05-12T19:16:58.422Z,54.63
2019-05-12T19:22:09.077Z,54.45
2019-05-12T19:27:10.390Z,54.30
2019-05-12T19:32:16.141Z,53.94
2019-05-12T19:37:26.477Z,54.47
2019-05-12T19:42:27.257Z,55.34
2019-05-12T19:47:36.451Z,55.34
2019-05-12T19:52:38.243Z,55.18
2019-05-12T19:57:44.258Z,55.53
2019-05-12T20:02:49.186Z,55.58
2019-05-12T20:07:53.884Z,55.91
2019-05-12T20:12:58.864Z,56.33
2019-05-12T20:18:04.239Z,56.26
2019-05-12T20:23:09.215Z,56.21
2019-05-12T20:28:19.822Z,56.30
2019-05-12T20:33:24.432Z,56.12
2019-05-12T20:38:33.945Z,56.21
2019-05-12T20:43:38.145Z,56.52
2019-05-12T20:48:41.554Z,56.63
2019-05-12T20:53:47.189Z,56.28
2019-05-12T20:58:51.744Z,56.54
2019-05-12T21:03:56.298Z,56.51
2019-05-12T21:09:00.865Z,56.48
2019-05-12T21:14:09.951Z,56.67
2019-05-12T21:19:14.250Z,56.73
2019-05-12T21:24:18.405Z,56.91
2019-05-12T21:29:25.696Z,56.90
2019-05-12T21:34:29.538Z,56.93
2019-05-12T21:39:34.159Z,56.49
2019-05-12T21:44:41.309Z,55.97
2019-05-12T21:49:48.551Z,54.91
2019-05-12T21:54:55.417Z,54.91
2019-05-12T21:59:59.204Z,55.05
2019-05-12T22:05:04.285Z,55.48
2019-05-12T22:10:09.278Z,55.75
2019-05-12T22:15:24.538Z,55.72
2019-05-12T22:20:32.363Z,55.86
2019-05-12T22:25:37.105Z,56.00
2019-05-12T22:30:43.827Z,56.46
2019-05-12T22:36:01.874Z,56.90
2019-05-12T22:40:57.896Z,57.08
2019-05-12T22:46:00.710Z,56.86
2019-05-12T22:51:14.435Z,57.32
2019-05-12T22:56:13.424Z,57.17
2019-05-12T23:01:18.023Z,57.62
2019-05-12T23:06:24.974Z,57.92
2019-05-12T23:11:37.553Z,57.83
2019-05-12T23:16:35.686Z,59.32
2019-05-12T23:21:40.204Z,60.09
2019-05-12T23:26:47.793Z,60.94
2019-05-12T23:31:51.017Z,60.64
2019-05-12T23:36:59.731Z,59.63
2019-05-12T23:42:04.195Z,59.80
2019-05-12T23:47:08.118Z,59.75
2019-05-12T23:52:14.019Z,61.33
2019-05-12T23:57:18.732Z,62.20
